createdAt,value
2017-08-16T00:00:01.747Z,19.98
2017-08-16T00:00:06.193Z,19.9
2017-08-16T00:00:10.661Z,19.97
2017-08-16T00:00:15.004Z,19.95
2017-08-16T00:00:19.355Z,19.89
2017-08-16T00:00:23.578Z,19.95
2017-08-16T00:00:27.801Z,19.97
2017-08-16T00:00:32.289Z,19.97
2017-08-16T00:00:36.749Z,19.98
2017-08-16T00:00:41.091Z,19.97
2017-08-16T00:00:45.445Z,19.92
2017-08-16T00:00:49.905Z,19.89
2017-08-16T00:00:54.396Z,19.95
2017-08-16T00:00:58.635Z,19.9
2017-08-16T00:01:02.992Z,20.04
2017-08-16T00:01:07.333Z,19.98
2017-08-16T00:01:11.451Z,19.95
2017-08-16T00:01:15.793Z,20.01
2017-08-16T00:01:20.264Z,19.94
2017-08-16T00:01:24.720Z,19.92
2017-08-16T00:01:28.959Z,19.92
2017-08-16T00:01:33.313Z,19.92
2017-08-16T00:01:37.664Z,19.95
2017-08-16T00:01:42.003Z,19.9
2017-08-16T00:01:46.486Z,19.86
2017-08-16T00:01:50.818Z,19.86
2017-08-16T00:01:55.294Z,19.86
2017-08-16T00:01:59.751Z,19.87
2017-08-16T00:02:04.095Z,19.86
2017-08-16T00:02:08.103Z,19.92
2017-08-16T00:02:12.571Z,19.87
2017-08-16T00:02:17.030Z,19.78
2017-08-16T00:02:21.378Z,19.86
2017-08-16T00:02:25.742Z,19.86
2017-08-16T00:02:29.974Z,19.87
2017-08-16T00:02:34.319Z,19.86
2017-08-16T00:02:38.788Z,19.78
2017-08-16T00:02:42.918Z,19.86
2017-08-16T00:02:47.396Z,19.87
2017-08-16T00:02:51.858Z,19.79
2017-08-16T00:02:56.086Z,19.76
2017-08-16T00:03:00.189Z,19.76
2017-08-16T00:03:04.679Z,19.79
2017-08-16T00:03:09.028Z,19.78
2017-08-16T00:03:13.492Z,19.76
2017-08-16T00:03:17.848Z,19.8
2017-08-16T00:03:22.061Z,19.78
2017-08-16T00:03:26.529Z,19.76
2017-08-16T00:03:30.877Z,19.79
2017-08-16T00:03:35.242Z,19.78
2017-08-16T00:03:39.593Z,19.89
2017-08-16T00:03:43.925Z,19.8
2017-08-16T00:03:48.275Z,19.76
2017-08-16T00:03:52.774Z,19.83
2017-08-16T00:03:57.146Z,19.8
2017-08-16T00:04:01.490Z,19.76
2017-08-16T00:04:06.127Z,19.75
2017-08-16T00:04:10.349Z,19.72
2017-08-16T00:04:14.856Z,19.72
2017-08-16T00:04:19.194Z,19.8
2017-08-16T00:04:23.472Z,19.79
2017-08-16T00:04:27.823Z,19.76
2017-08-16T00:04:32.065Z,19.79
2017-08-16T00:04:36.403Z,19.75
2017-08-16T00:04:40.523Z,19.78
2017-08-16T00:04:44.872Z,19.78
2017-08-16T00:04:49.336Z,19.76
2017-08-16T00:04:53.829Z,19.8
2017-08-16T00:04:58.184Z,19.79
2017-08-16T00:05:02.841Z,19.78
2017-08-16T00:05:07.356Z,19.8
2017-08-16T00:05:11.818Z,19.79
2017-08-16T00:05:16.155Z,19.75
2017-08-16T00:05:20.502Z,19.75
2017-08-16T00:05:24.852Z,19.72
2017-08-16T00:05:29.309Z,19.76
2017-08-16T00:05:33.764Z,19.76
2017-08-16T00:05:38.110Z,19.8
2017-08-16T00:05:42.367Z,19.76
2017-08-16T00:05:46.599Z,19.8
2017-08-16T00:05:51.063Z,19.78
2017-08-16T00:05:55.533Z,19.75
2017-08-16T00:05:59.888Z,19.79
2017-08-16T00:06:04.238Z,19.79
2017-08-16T00:06:08.577Z,19.79
2017-08-16T00:06:12.959Z,19.78
2017-08-16T00:06:17.304Z,19.78
2017-08-16T00:06:21.646Z,19.83
2017-08-16T00:06:25.876Z,19.8
2017-08-16T00:06:30.348Z,19.72
2017-08-16T00:06:34.823Z,19.78
2017-08-16T00:06:39.175Z,19.76
2017-08-16T00:06:43.630Z,19.8
2017-08-16T00:06:48.102Z,19.65
2017-08-16T00:06:52.581Z,19.65
2017-08-16T00:06:57.056Z,19.78
2017-08-16T00:07:01.529Z,19.78
2017-08-16T00:07:06.142Z,19.75
2017-08-16T00:07:10.606Z,19.7
2017-08-16T00:07:14.949Z,19.65
2017-08-16T00:07:19.414Z,19.75
2017-08-16T00:07:23.775Z,19.75
2017-08-16T00:07:28.024Z,19.67
2017-08-16T00:07:32.386Z,19.75
2017-08-16T00:07:36.734Z,19.7
2017-08-16T00:07:41.206Z,19.67
2017-08-16T00:07:45.557Z,19.64
2017-08-16T00:07:50.027Z,19.62
2017-08-16T00:07:54.384Z,19.65
2017-08-16T00:07:58.850Z,19.68
2017-08-16T00:08:03.068Z,19.6
2017-08-16T00:08:07.290Z,19.67
2017-08-16T00:08:11.642Z,19.7
2017-08-16T00:08:15.638Z,19.65
2017-08-16T00:08:20.153Z,19.7
2017-08-16T00:08:24.500Z,19.64
2017-08-16T00:08:28.603Z,19.7
2017-08-16T00:08:32.927Z,19.75
2017-08-16T00:08:37.274Z,19.64
2017-08-16T00:08:41.499Z,19.67
2017-08-16T00:08:45.861Z,19.67
2017-08-16T00:08:50.337Z,19.64
2017-08-16T00:08:54.693Z,19.67
2017-08-16T00:08:58.921Z,19.67
2017-08-16T00:09:03.689Z,19.68
2017-08-16T00:09:08.149Z,19.65
2017-08-16T00:09:12.591Z,19.67
2017-08-16T00:09:16.949Z,19.64
2017-08-16T00:09:21.302Z,19.61
2017-08-16T00:09:26.049Z,19.68
2017-08-16T00:09:30.528Z,19.61
2017-08-16T00:09:35.010Z,19.65
2017-08-16T00:09:39.482Z,19.64
2017-08-16T00:09:43.716Z,19.64
2017-08-16T00:09:48.172Z,19.57
2017-08-16T00:09:52.632Z,19.57
2017-08-16T00:09:57.096Z,19.55
2017-08-16T00:10:01.739Z,19.67
2017-08-16T00:10:05.979Z,19.6
2017-08-16T00:10:10.314Z,19.64
2017-08-16T00:10:14.536Z,19.57
2017-08-16T00:10:18.416Z,19.53
2017-08-16T00:10:22.663Z,19.64
2017-08-16T00:10:27.003Z,19.57
2017-08-16T00:10:31.475Z,19.55
2017-08-16T00:10:35.860Z,19.53
2017-08-16T00:10:40.323Z,19.62
2017-08-16T00:10:44.662Z,19.62
2017-08-16T00:10:49.004Z,19.61
2017-08-16T00:10:53.244Z,19.58
2017-08-16T00:10:57.487Z,19.55
2017-08-16T00:11:01.954Z,19.53
2017-08-16T00:11:06.293Z,19.55
2017-08-16T00:11:10.645Z,19.53
2017-08-16T00:11:15.027Z,19.52
2017-08-16T00:11:19.369Z,19.53
2017-08-16T00:11:23.835Z,19.53
2017-08-16T00:11:28.190Z,19.5
2017-08-16T00:11:32.433Z,19.57
2017-08-16T00:11:36.793Z,19.53
2017-08-16T00:11:41.147Z,19.55
2017-08-16T00:11:45.388Z,19.55
2017-08-16T00:11:49.864Z,19.57
2017-08-16T00:11:54.192Z,19.57
2017-08-16T00:11:58.650Z,19.55
2017-08-16T00:12:02.992Z,19.52
2017-08-16T00:12:07.481Z,19.53
2017-08-16T00:12:11.718Z,19.49
2017-08-16T00:12:16.053Z,19.53
2017-08-16T00:12:20.508Z,19.5
2017-08-16T00:12:24.982Z,19.5
2017-08-16T00:12:29.337Z,19.53
2017-08-16T00:12:33.800Z,19.5
2017-08-16T00:12:38.266Z,19.52
2017-08-16T00:12:42.599Z,19.46
2017-08-16T00:12:47.079Z,19.52
2017-08-16T00:12:51.430Z,19.52
2017-08-16T00:12:55.785Z,19.52
2017-08-16T00:13:00.023Z,19.46
2017-08-16T00:13:04.488Z,19.5
2017-08-16T00:13:08.718Z,19.46
2017-08-16T00:13:13.180Z,19.45
2017-08-16T00:13:17.517Z,19.5
2017-08-16T00:13:21.977Z,19.49
2017-08-16T00:13:26.322Z,19.47
2017-08-16T00:13:30.673Z,19.52
2017-08-16T00:13:35.028Z,19.5
2017-08-16T00:13:39.373Z,19.46
2017-08-16T00:13:43.830Z,19.42
2017-08-16T00:13:48.311Z,19.46
2017-08-16T00:13:52.783Z,19.46
2017-08-16T00:13:57.147Z,19.45
2017-08-16T00:14:01.712Z,19.43
2017-08-16T00:14:06.195Z,19.53
2017-08-16T00:14:10.554Z,19.49
2017-08-16T00:14:14.919Z,19.42
2017-08-16T00:14:19.034Z,19.4
2017-08-16T00:14:23.136Z,19.45
2017-08-16T00:14:27.628Z,19.55
2017-08-16T00:14:31.864Z,19.52
2017-08-16T00:14:36.327Z,19.52
2017-08-16T00:14:40.673Z,19.57
2017-08-16T00:14:44.790Z,19.52
2017-08-16T00:14:49.127Z,19.55
2017-08-16T00:14:53.595Z,19.55
2017-08-16T00:14:57.937Z,19.52
2017-08-16T00:15:02.298Z,19.49
2017-08-16T00:15:06.780Z,19.47
2017-08-16T00:15:11.110Z,19.5
2017-08-16T00:15:15.447Z,19.57
2017-08-16T00:15:19.546Z,19.46
2017-08-16T00:15:24.004Z,19.43
2017-08-16T00:15:28.366Z,19.52
2017-08-16T00:15:32.590Z,19.55
2017-08-16T00:15:36.942Z,19.52
2017-08-16T00:15:41.398Z,19.55
2017-08-16T00:15:45.747Z,19.46
2017-08-16T00:15:50.212Z,19.55
2017-08-16T00:15:54.670Z,19.46
2017-08-16T00:15:58.894Z,19.47
2017-08-16T00:16:03.365Z,19.52
2017-08-16T00:16:07.819Z,19.52
2017-08-16T00:16:12.053Z,19.53
2017-08-16T00:16:16.416Z,19.55
2017-08-16T00:16:20.775Z,19.55
2017-08-16T00:16:24.917Z,19.49
2017-08-16T00:16:29.028Z,19.53
2017-08-16T00:16:33.132Z,19.52
2017-08-16T00:16:37.593Z,19.52
2017-08-16T00:16:41.933Z,19.49
2017-08-16T00:16:46.385Z,19.5
2017-08-16T00:16:50.856Z,19.5
2017-08-16T00:16:55.219Z,19.5
2017-08-16T00:16:59.473Z,19.57
2017-08-16T00:17:04.011Z,19.5
2017-08-16T00:17:08.373Z,19.53
2017-08-16T00:17:12.482Z,19.53
2017-08-16T00:17:16.829Z,19.5
2017-08-16T00:17:21.192Z,19.53
2017-08-16T00:17:25.540Z,19.5
2017-08-16T00:17:29.772Z,19.5
2017-08-16T00:17:34.132Z,19.52
2017-08-16T00:17:38.479Z,19.52
2017-08-16T00:17:42.939Z,19.52
2017-08-16T00:17:47.272Z,19.57
2017-08-16T00:17:51.754Z,19.53
2017-08-16T00:17:55.984Z,19.5
2017-08-16T00:18:00.201Z,19.55
2017-08-16T00:18:04.800Z,19.57
2017-08-16T00:18:08.911Z,19.5
2017-08-16T00:18:13.252Z,19.55
2017-08-16T00:18:17.584Z,19.52
2017-08-16T00:18:22.052Z,19.53
2017-08-16T00:18:26.391Z,19.55
2017-08-16T00:18:30.853Z,19.57
2017-08-16T00:18:35.314Z,19.53
2017-08-16T00:18:39.662Z,19.52
2017-08-16T00:18:44.139Z,19.53
2017-08-16T00:18:48.610Z,19.52
2017-08-16T00:18:53.075Z,19.57
2017-08-16T00:18:57.313Z,19.53
2017-08-16T00:19:01.781Z,19.55
2017-08-16T00:19:06.114Z,19.57
2017-08-16T00:19:10.576Z,19.52
2017-08-16T00:19:15.038Z,19.58
2017-08-16T00:19:19.532Z,19.53
2017-08-16T00:19:23.996Z,19.49
2017-08-16T00:19:28.450Z,19.55
2017-08-16T00:19:32.797Z,19.5
2017-08-16T00:19:37.289Z,19.47
2017-08-16T00:19:41.748Z,19.46
2017-08-16T00:19:45.964Z,19.52
2017-08-16T00:19:50.421Z,19.52
2017-08-16T00:19:54.653Z,19.55
2017-08-16T00:19:58.868Z,19.47
2017-08-16T00:20:03.218Z,19.5
2017-08-16T00:20:07.686Z,19.55
2017-08-16T00:20:12.050Z,19.55
2017-08-16T00:20:16.185Z,19.49
2017-08-16T00:20:20.653Z,19.46
2017-08-16T00:20:25.113Z,19.52
2017-08-16T00:20:29.356Z,19.5
2017-08-16T00:20:33.728Z,19.55
2017-08-16T00:20:38.191Z,19.52
2017-08-16T00:20:42.550Z,19.5
2017-08-16T00:20:46.775Z,19.5
2017-08-16T00:20:51.138Z,19.52
2017-08-16T00:20:55.591Z,19.5
2017-08-16T00:20:59.948Z,19.53
2017-08-16T00:21:04.409Z,19.53
2017-08-16T00:21:08.758Z,19.47
2017-08-16T00:21:13.224Z,19.57
2017-08-16T00:21:17.572Z,19.57
2017-08-16T00:21:22.041Z,19.52
2017-08-16T00:21:26.393Z,19.55
2017-08-16T00:21:30.636Z,19.45
2017-08-16T00:21:34.992Z,19.52
2017-08-16T00:21:39.226Z,19.52
2017-08-16T00:21:43.457Z,19.55
2017-08-16T00:21:47.676Z,19.52
2017-08-16T00:21:52.136Z,19.46
2017-08-16T00:21:56.481Z,19.55
2017-08-16T00:22:00.727Z,19.46
2017-08-16T00:22:05.132Z,19.52
2017-08-16T00:22:09.469Z,19.45
2017-08-16T00:22:13.941Z,19.46
2017-08-16T00:22:18.176Z,19.47
2017-08-16T00:22:22.516Z,19.42
2017-08-16T00:22:26.976Z,19.53
2017-08-16T00:22:31.200Z,19.49
2017-08-16T00:22:35.554Z,19.57
2017-08-16T00:22:39.776Z,19.45
2017-08-16T00:22:44.120Z,19.55
2017-08-16T00:22:48.586Z,19.47
2017-08-16T00:22:53.051Z,19.47
2017-08-16T00:22:57.517Z,19.42
2017-08-16T00:23:01.976Z,19.45
2017-08-16T00:23:06.450Z,19.55
2017-08-16T00:23:10.797Z,19.55
2017-08-16T00:23:15.133Z,19.49
2017-08-16T00:23:19.374Z,19.5
2017-08-16T00:23:23.727Z,19.5
2017-08-16T00:23:28.194Z,19.53
2017-08-16T00:23:32.445Z,19.49
2017-08-16T00:23:36.798Z,19.55
2017-08-16T00:23:41.284Z,19.49
2017-08-16T00:23:45.625Z,19.45
2017-08-16T00:23:50.097Z,19.45
2017-08-16T00:23:54.565Z,19.47
2017-08-16T00:23:59.034Z,19.49
2017-08-16T00:24:03.691Z,19.4
2017-08-16T00:24:08.041Z,19.43
2017-08-16T00:24:12.375Z,19.46
2017-08-16T00:24:16.590Z,19.46
2017-08-16T00:24:20.953Z,19.43
2017-08-16T00:24:25.222Z,19.4
2017-08-16T00:24:29.578Z,19.46
2017-08-16T00:24:33.932Z,19.4
2017-08-16T00:24:38.388Z,19.43
2017-08-16T00:24:42.878Z,19.38
2017-08-16T00:24:47.335Z,19.39
2017-08-16T00:24:51.805Z,19.49
2017-08-16T00:24:56.135Z,19.32
2017-08-16T00:25:00.153Z,19.42
2017-08-16T00:25:04.658Z,19.35
2017-08-16T00:25:09.002Z,19.4
2017-08-16T00:25:13.350Z,19.34
2017-08-16T00:25:17.711Z,19.45
2017-08-16T00:25:22.073Z,19.38
2017-08-16T00:25:26.417Z,19.38
2017-08-16T00:25:30.517Z,19.38
2017-08-16T00:25:34.871Z,19.38
2017-08-16T00:25:39.332Z,19.34
2017-08-16T00:25:43.796Z,19.35
2017-08-16T00:25:48.135Z,19.32
2017-08-16T00:25:52.606Z,19.27
2017-08-16T00:25:56.960Z,19.32
2017-08-16T00:26:01.307Z,19.24
2017-08-16T00:26:05.835Z,19.23
2017-08-16T00:26:10.080Z,19.25
2017-08-16T00:26:14.550Z,19.25
2017-08-16T00:26:18.769Z,19.24
2017-08-16T00:26:23.125Z,19.21
2017-08-16T00:26:27.587Z,19.24
2017-08-16T00:26:32.067Z,19.15
2017-08-16T00:26:36.531Z,19.17
2017-08-16T00:26:40.874Z,19.15
2017-08-16T00:26:45.334Z,19.23
2017-08-16T00:26:49.811Z,19.15
2017-08-16T00:26:54.299Z,19.15
2017-08-16T00:26:58.655Z,19.27
2017-08-16T00:27:03.192Z,19.15
2017-08-16T00:27:07.458Z,19.2
2017-08-16T00:27:11.817Z,19.12
2017-08-16T00:27:16.164Z,19.21
2017-08-16T00:27:20.494Z,19.12
2017-08-16T00:27:24.941Z,19.1
2017-08-16T00:27:29.169Z,19.12
2017-08-16T00:27:33.531Z,19.16
2017-08-16T00:27:37.760Z,19.02
2017-08-16T00:27:41.869Z,19.06
2017-08-16T00:27:46.112Z,19.09
2017-08-16T00:27:50.576Z,19.13
2017-08-16T00:27:54.922Z,19.1
2017-08-16T00:27:59.264Z,19.09
2017-08-16T00:28:03.884Z,19.02
2017-08-16T00:28:08.241Z,19.02
2017-08-16T00:28:12.595Z,18.99
2017-08-16T00:28:16.839Z,18.99
2017-08-16T00:28:21.077Z,19.02
2017-08-16T00:28:25.590Z,19.05
2017-08-16T00:28:29.945Z,18.96
2017-08-16T00:28:34.295Z,19.06
2017-08-16T00:28:38.554Z,18.93
2017-08-16T00:28:42.912Z,18.96
2017-08-16T00:28:47.146Z,19.02
2017-08-16T00:28:51.503Z,18.99
2017-08-16T00:28:55.854Z,18.97
2017-08-16T00:29:00.072Z,19.01
2017-08-16T00:29:04.790Z,19.02
2017-08-16T00:29:09.141Z,18.94
2017-08-16T00:29:13.622Z,18.93
2017-08-16T00:29:18.082Z,18.97
2017-08-16T00:29:22.407Z,19.01
2017-08-16T00:29:26.759Z,18.96
2017-08-16T00:29:31.107Z,18.93
2017-08-16T00:29:35.230Z,18.86
2017-08-16T00:29:39.459Z,18.93
2017-08-16T00:29:43.910Z,18.9
2017-08-16T00:29:48.376Z,18.86
2017-08-16T00:29:52.865Z,18.9
2017-08-16T00:29:57.210Z,18.87
2017-08-16T00:30:01.560Z,18.86
2017-08-16T00:30:06.079Z,18.91
2017-08-16T00:30:10.423Z,18.89
2017-08-16T00:30:14.782Z,18.86
2017-08-16T00:30:19.244Z,18.87
2017-08-16T00:30:23.701Z,18.86
2017-08-16T00:30:28.062Z,18.83
2017-08-16T00:30:32.291Z,18.86
2017-08-16T00:30:36.416Z,18.87
2017-08-16T00:30:40.877Z,18.86
2017-08-16T00:30:45.333Z,18.84
2017-08-16T00:30:49.806Z,18.87
2017-08-16T00:30:54.265Z,18.86
2017-08-16T00:30:58.501Z,18.86
2017-08-16T00:31:02.971Z,18.78
2017-08-16T00:31:07.207Z,18.84
2017-08-16T00:31:11.553Z,18.82
2017-08-16T00:31:16.021Z,18.9
2017-08-16T00:31:20.497Z,18.86
2017-08-16T00:31:24.858Z,18.76
2017-08-16T00:31:29.203Z,18.78
2017-08-16T00:31:33.429Z,18.75
2017-08-16T00:31:37.770Z,18.76
2017-08-16T00:31:42.141Z,18.78
2017-08-16T00:31:46.491Z,18.72
2017-08-16T00:31:50.717Z,18.69
2017-08-16T00:31:55.180Z,18.74
2017-08-16T00:31:59.534Z,18.74
2017-08-16T00:32:04.072Z,18.68
2017-08-16T00:32:08.424Z,18.68
2017-08-16T00:32:12.541Z,18.74
2017-08-16T00:32:17.019Z,18.74
2017-08-16T00:32:21.517Z,18.72
2017-08-16T00:32:25.767Z,18.76
2017-08-16T00:32:30.119Z,18.72
2017-08-16T00:32:34.607Z,18.66
2017-08-16T00:32:38.945Z,18.66
2017-08-16T00:32:43.404Z,18.72
2017-08-16T00:32:47.753Z,18.69
2017-08-16T00:32:52.102Z,18.71
2017-08-16T00:32:56.573Z,18.69
2017-08-16T00:33:01.048Z,18.62
2017-08-16T00:33:05.505Z,18.72
2017-08-16T00:33:09.859Z,18.68
2017-08-16T00:33:14.201Z,18.74
2017-08-16T00:33:18.434Z,18.68
2017-08-16T00:33:22.911Z,18.68
2017-08-16T00:33:27.295Z,18.6
2017-08-16T00:33:31.408Z,18.65
2017-08-16T00:33:35.760Z,18.66
2017-08-16T00:33:40.114Z,18.6
2017-08-16T00:33:44.488Z,18.59
2017-08-16T00:33:48.944Z,18.59
2017-08-16T00:33:53.418Z,18.64
2017-08-16T00:33:57.774Z,18.6
2017-08-16T00:34:02.511Z,18.64
2017-08-16T00:34:06.977Z,18.68
2017-08-16T00:34:11.308Z,18.6
2017-08-16T00:34:15.545Z,18.57
2017-08-16T00:34:19.901Z,18.6
2017-08-16T00:34:24.363Z,18.6
2017-08-16T00:34:28.713Z,18.68
2017-08-16T00:34:32.934Z,18.62
2017-08-16T00:34:37.288Z,18.59
2017-08-16T00:34:41.647Z,18.54
2017-08-16T00:34:45.990Z,18.64
2017-08-16T00:34:50.345Z,18.6
2017-08-16T00:34:54.588Z,18.62
2017-08-16T00:34:58.931Z,18.62
2017-08-16T00:35:03.396Z,18.57
2017-08-16T00:35:07.867Z,18.59
2017-08-16T00:35:12.344Z,18.64
2017-08-16T00:35:16.442Z,18.54
2017-08-16T00:35:20.671Z,18.6
2017-08-16T00:35:25.012Z,18.6
2017-08-16T00:35:29.125Z,18.6
2017-08-16T00:35:33.353Z,18.57
2017-08-16T00:35:37.690Z,18.57
2017-08-16T00:35:41.904Z,18.6
2017-08-16T00:35:46.246Z,18.64
2017-08-16T00:35:50.745Z,18.59
2017-08-16T00:35:55.200Z,18.59
2017-08-16T00:35:59.550Z,18.59
2017-08-16T00:36:04.076Z,18.59
2017-08-16T00:36:08.451Z,18.59
2017-08-16T00:36:12.910Z,18.54
2017-08-16T00:36:17.269Z,18.54
2017-08-16T00:36:21.623Z,18.57
2017-08-16T00:36:26.089Z,18.64
2017-08-16T00:36:30.442Z,18.57
2017-08-16T00:36:34.785Z,18.54
2017-08-16T00:36:39.131Z,18.57
2017-08-16T00:36:43.467Z,18.54
2017-08-16T00:36:47.955Z,18.6
2017-08-16T00:36:52.427Z,18.59
2017-08-16T00:36:56.762Z,18.59
2017-08-16T00:37:00.897Z,18.54
2017-08-16T00:37:05.129Z,18.54
2017-08-16T00:37:09.601Z,18.51
2017-08-16T00:37:14.074Z,18.51
2017-08-16T00:37:18.410Z,18.5
2017-08-16T00:37:22.869Z,18.5
2017-08-16T00:37:27.346Z,18.49
2017-08-16T00:37:31.805Z,18.53
2017-08-16T00:37:36.295Z,18.47
2017-08-16T00:37:40.640Z,18.49
2017-08-16T00:37:45.104Z,18.56
2017-08-16T00:37:49.575Z,18.5
2017-08-16T00:37:54.055Z,18.5
2017-08-16T00:37:58.086Z,18.5
2017-08-16T00:38:02.502Z,18.5
2017-08-16T00:38:06.970Z,18.49
2017-08-16T00:38:11.439Z,18.54
2017-08-16T00:38:15.574Z,18.53
2017-08-16T00:38:19.933Z,18.53
2017-08-16T00:38:24.402Z,18.54
2017-08-16T00:38:28.874Z,18.5
2017-08-16T00:38:33.237Z,18.5
2017-08-16T00:38:37.586Z,18.5
2017-08-16T00:38:41.930Z,18.53
2017-08-16T00:38:46.389Z,18.5
2017-08-16T00:38:50.642Z,18.53
2017-08-16T00:38:55.096Z,18.57
2017-08-16T00:38:59.310Z,18.5
2017-08-16T00:39:03.646Z,18.49
2017-08-16T00:39:08.112Z,18.51
2017-08-16T00:39:12.575Z,18.5
2017-08-16T00:39:16.801Z,18.49
2017-08-16T00:39:21.163Z,18.5
2017-08-16T00:39:25.511Z,18.39
2017-08-16T00:39:30.141Z,18.47
2017-08-16T00:39:34.488Z,18.49
2017-08-16T00:39:38.723Z,18.53
2017-08-16T00:39:43.075Z,18.53
2017-08-16T00:39:47.316Z,18.44
2017-08-16T00:39:51.797Z,18.5
2017-08-16T00:39:56.156Z,18.5
2017-08-16T00:40:00.507Z,18.5
2017-08-16T00:40:04.977Z,18.57
2017-08-16T00:40:09.203Z,18.53
2017-08-16T00:40:13.550Z,18.5
2017-08-16T00:40:17.666Z,18.49
2017-08-16T00:40:21.906Z,18.46
2017-08-16T00:40:26.365Z,18.47
2017-08-16T00:40:30.722Z,18.54
2017-08-16T00:40:35.084Z,18.53
2017-08-16T00:40:39.325Z,18.49
2017-08-16T00:40:43.798Z,18.53
2017-08-16T00:40:48.149Z,18.5
2017-08-16T00:40:52.642Z,18.53
2017-08-16T00:40:56.997Z,18.44
2017-08-16T00:41:01.339Z,18.53
2017-08-16T00:41:05.808Z,18.5
2017-08-16T00:41:10.274Z,18.51
2017-08-16T00:41:14.744Z,18.49
2017-08-16T00:41:18.974Z,18.47
2017-08-16T00:41:23.435Z,18.49
2017-08-16T00:41:27.911Z,18.51
2017-08-16T00:41:32.162Z,18.54
2017-08-16T00:41:36.506Z,18.54
2017-08-16T00:41:40.630Z,18.51
2017-08-16T00:41:44.979Z,18.53
2017-08-16T00:41:49.325Z,18.5
2017-08-16T00:41:53.781Z,18.54
2017-08-16T00:41:58.131Z,18.49
2017-08-16T00:42:02.474Z,18.54
2017-08-16T00:42:06.822Z,18.46
2017-08-16T00:42:11.186Z,18.56
2017-08-16T00:42:15.400Z,18.5
2017-08-16T00:42:19.856Z,18.51
2017-08-16T00:42:24.332Z,18.53
2017-08-16T00:42:28.691Z,18.5
2017-08-16T00:42:32.923Z,18.49
2017-08-16T00:42:37.380Z,18.53
2017-08-16T00:42:41.836Z,18.53
2017-08-16T00:42:46.316Z,18.46
2017-08-16T00:42:50.777Z,18.46
2017-08-16T00:42:55.244Z,18.51
2017-08-16T00:42:59.713Z,18.47
2017-08-16T00:43:04.068Z,18.5
2017-08-16T00:43:08.538Z,18.57
2017-08-16T00:43:12.988Z,18.5
2017-08-16T00:43:17.224Z,18.51
2017-08-16T00:43:21.322Z,18.47
2017-08-16T00:43:25.671Z,18.5
2017-08-16T00:43:29.885Z,18.5
2017-08-16T00:43:34.110Z,18.56
2017-08-16T00:43:38.457Z,18.5
2017-08-16T00:43:42.912Z,18.49
2017-08-16T00:43:47.374Z,18.5
2017-08-16T00:43:51.834Z,18.59
2017-08-16T00:43:56.209Z,18.54
2017-08-16T00:44:00.554Z,18.53
2017-08-16T00:44:05.027Z,18.49
2017-08-16T00:44:09.387Z,18.46
2017-08-16T00:44:13.865Z,18.49
2017-08-16T00:44:18.239Z,18.53
2017-08-16T00:44:22.711Z,18.53
2017-08-16T00:44:27.058Z,18.49
2017-08-16T00:44:31.403Z,18.57
2017-08-16T00:44:35.750Z,18.49
2017-08-16T00:44:39.982Z,18.59
2017-08-16T00:44:44.458Z,18.49
2017-08-16T00:44:48.813Z,18.47
2017-08-16T00:44:53.159Z,18.56
2017-08-16T00:44:57.382Z,18.49
2017-08-16T00:45:01.595Z,18.56
2017-08-16T00:45:06.074Z,18.54
2017-08-16T00:45:10.312Z,18.42
2017-08-16T00:45:14.779Z,18.5
2017-08-16T00:45:19.122Z,18.49
2017-08-16T00:45:23.593Z,18.36
2017-08-16T00:45:27.826Z,18.54
2017-08-16T00:45:31.949Z,18.5
2017-08-16T00:45:36.292Z,18.51
2017-08-16T00:45:40.635Z,18.5
2017-08-16T00:45:45.094Z,18.51
2017-08-16T00:45:49.560Z,18.54
2017-08-16T00:45:53.895Z,18.49
2017-08-16T00:45:58.369Z,18.49
2017-08-16T00:46:02.849Z,18.53
2017-08-16T00:46:07.198Z,18.46
2017-08-16T00:46:11.412Z,18.47
2017-08-16T00:46:15.874Z,18.5
2017-08-16T00:46:20.333Z,18.53
2017-08-16T00:46:24.803Z,18.49
2017-08-16T00:46:29.256Z,18.47
2017-08-16T00:46:33.611Z,18.5
2017-08-16T00:46:37.962Z,18.49
2017-08-16T00:46:42.441Z,18.53
2017-08-16T00:46:46.812Z,18.5
2017-08-16T00:46:51.274Z,18.51
2017-08-16T00:46:55.723Z,18.5
2017-08-16T00:46:59.947Z,18.53
2017-08-16T00:47:04.523Z,18.53
2017-08-16T00:47:08.877Z,18.53
2017-08-16T00:47:13.335Z,18.41
2017-08-16T00:47:17.703Z,18.5
2017-08-16T00:47:22.061Z,18.53
2017-08-16T00:47:26.517Z,18.51
2017-08-16T00:47:30.751Z,18.49
2017-08-16T00:47:35.099Z,18.44
2017-08-16T00:47:39.452Z,18.44
2017-08-16T00:47:43.916Z,18.47
2017-08-16T00:47:48.401Z,18.54
2017-08-16T00:47:52.632Z,18.5
2017-08-16T00:47:56.878Z,18.49
2017-08-16T00:48:00.864Z,18.47
2017-08-16T00:48:05.209Z,18.44
2017-08-16T00:48:09.576Z,18.42
2017-08-16T00:48:13.925Z,18.36
2017-08-16T00:48:18.161Z,18.49
2017-08-16T00:48:22.612Z,18.35
2017-08-16T00:48:26.836Z,18.54
2017-08-16T00:48:31.193Z,18.38
2017-08-16T00:48:35.553Z,18.46
2017-08-16T00:48:40.004Z,18.49
2017-08-16T00:48:44.454Z,18.42
2017-08-16T00:48:48.933Z,18.44
2017-08-16T00:48:53.402Z,18.53
2017-08-16T00:48:57.630Z,18.47
2017-08-16T00:49:01.855Z,18.49
2017-08-16T00:49:06.268Z,18.47
2017-08-16T00:49:10.728Z,18.5
2017-08-16T00:49:15.203Z,18.51
2017-08-16T00:49:19.563Z,18.54
2017-08-16T00:49:23.907Z,18.49
2017-08-16T00:49:28.245Z,18.49
2017-08-16T00:49:32.710Z,18.5
2017-08-16T00:49:37.176Z,18.44
2017-08-16T00:49:41.518Z,18.47
2017-08-16T00:49:45.989Z,18.36
2017-08-16T00:49:50.445Z,18.54
2017-08-16T00:49:54.902Z,18.38
2017-08-16T00:49:59.130Z,18.46
2017-08-16T00:50:03.624Z,18.36
2017-08-16T00:50:08.073Z,18.51
2017-08-16T00:50:12.540Z,18.42
2017-08-16T00:50:16.892Z,18.5
2017-08-16T00:50:21.346Z,18.47
2017-08-16T00:50:25.691Z,18.41
2017-08-16T00:50:29.929Z,18.42
2017-08-16T00:50:34.273Z,18.41
2017-08-16T00:50:38.730Z,18.42
2017-08-16T00:50:43.064Z,18.41
2017-08-16T00:50:47.533Z,18.38
2017-08-16T00:50:51.785Z,18.41
2017-08-16T00:50:56.127Z,18.54
2017-08-16T00:51:00.468Z,18.49
2017-08-16T00:51:04.942Z,18.46
2017-08-16T00:51:09.430Z,18.49
2017-08-16T00:51:13.902Z,18.5
2017-08-16T00:51:18.355Z,18.49
2017-08-16T00:51:22.818Z,18.39
2017-08-16T00:51:27.043Z,18.5
2017-08-16T00:51:31.282Z,18.42
2017-08-16T00:51:35.503Z,18.46
2017-08-16T00:51:39.844Z,18.5
2017-08-16T00:51:44.192Z,18.39
2017-08-16T00:51:48.667Z,18.39
2017-08-16T00:51:53.017Z,18.5
2017-08-16T00:51:57.258Z,18.41
2017-08-16T00:52:01.609Z,18.5
2017-08-16T00:52:05.942Z,18.49
2017-08-16T00:52:10.423Z,18.49
2017-08-16T00:52:14.785Z,18.46
2017-08-16T00:52:19.151Z,18.49
2017-08-16T00:52:23.616Z,18.5
2017-08-16T00:52:27.735Z,18.46
2017-08-16T00:52:32.203Z,18.42
2017-08-16T00:52:36.546Z,18.41
2017-08-16T00:52:40.783Z,18.36
2017-08-16T00:52:44.999Z,18.44
2017-08-16T00:52:49.240Z,18.38
2017-08-16T00:52:53.700Z,18.47
2017-08-16T00:52:58.049Z,18.41
2017-08-16T00:53:02.702Z,18.44
2017-08-16T00:53:07.159Z,18.42
2017-08-16T00:53:11.633Z,18.41
2017-08-16T00:53:15.638Z,18.47
2017-08-16T00:53:19.888Z,18.41
2017-08-16T00:53:24.331Z,18.42
2017-08-16T00:53:28.448Z,18.36
2017-08-16T00:53:32.797Z,18.35
2017-08-16T00:53:37.284Z,18.42
2017-08-16T00:53:41.496Z,18.51
2017-08-16T00:53:45.707Z,18.5
2017-08-16T00:53:50.191Z,18.47
2017-08-16T00:53:54.560Z,18.46
2017-08-16T00:53:58.787Z,18.41
2017-08-16T00:54:03.077Z,18.39
2017-08-16T00:54:07.304Z,18.49
2017-08-16T00:54:11.655Z,18.42
2017-08-16T00:54:15.996Z,18.47
2017-08-16T00:54:20.451Z,18.46
2017-08-16T00:54:24.802Z,18.44
2017-08-16T00:54:29.038Z,18.41
2017-08-16T00:54:33.507Z,18.5
2017-08-16T00:54:37.862Z,18.36
2017-08-16T00:54:42.215Z,18.49
2017-08-16T00:54:46.566Z,18.46
2017-08-16T00:54:51.037Z,18.47
2017-08-16T00:54:55.372Z,18.51
2017-08-16T00:54:59.719Z,18.46
2017-08-16T00:55:04.073Z,18.49
2017-08-16T00:55:08.589Z,18.49
2017-08-16T00:55:12.808Z,18.41
2017-08-16T00:55:17.264Z,18.44
2017-08-16T00:55:21.595Z,18.44
2017-08-16T00:55:26.061Z,18.39
2017-08-16T00:55:30.547Z,18.47
2017-08-16T00:55:34.763Z,18.41
2017-08-16T00:55:39.096Z,18.5
2017-08-16T00:55:43.571Z,18.42
2017-08-16T00:55:47.785Z,18.41
2017-08-16T00:55:52.259Z,18.42
2017-08-16T00:55:56.615Z,18.38
2017-08-16T00:56:00.965Z,18.38
2017-08-16T00:56:05.428Z,18.42
2017-08-16T00:56:09.653Z,18.44
2017-08-16T00:56:14.097Z,18.39
2017-08-16T00:56:18.569Z,18.49
2017-08-16T00:56:23.043Z,18.5
2017-08-16T00:56:27.379Z,18.41
2017-08-16T00:56:31.711Z,18.46